Home > Products > Valid Products > TAF

000
FTUS41 KILN 061000 AAB
TAFLUK
TAF AMD
KLUK 061013Z 0610/0706 00000KT 2SM BR SKC
      TEMPO 0610/0612 1/2SM FG VV002
     FM061300 20006KT P6SM SCT250
     FM062300 20007KT P6SM SCT100 SCT250=



000
FTUS41 KILN 061000 AAB
TAFLUK
TAF AMD
KLUK 061013Z 0610/0706 00000KT 2SM BR SKC
      TEMPO 0610/0612 1/2SM FG VV002
     FM061300 20006KT P6SM SCT250
     FM062300 20007KT P6SM SCT100 SCT250=



000
FTUS41 KILN 060800 AAA
TAFCVG
TAF AMD
KCVG 060858Z 0609/0712 VRB03KT P6SM SKC
      TEMPO 0609/0613 5SM BR
     FM061300 19007KT P6SM SCT250
     FM062300 21008KT P6SM SCT100
     FM070900 22009KT P6SM SCT018
      TEMPO 0710/0712 BKN018=



000
FTUS41 KILN 060800 AAA
TAFLUK
TAF AMD
KLUK 060810Z 0608/0706 00000KT P6SM SKC
      TEMPO 0608/0612 2SM BR BKN003
     FM061300 20006KT P6SM SCT250
     FM062300 20007KT P6SM SCT100 SCT250=



000
FTUS41 KILN 060500
TAFCVG
TAF
KCVG 060539Z 0606/0712 VRB03KT P6SM SKC
     FM061300 19007KT P6SM SCT250
     FM062300 21008KT P6SM SCT100 SCT250=



000
FTUS41 KILN 060500
TAFCMH
TAF
KCMH 060539Z 0606/0706 00000KT P6SM SKC
     FM061300 20007KT P6SM SCT250
     FM061700 20011KT P6SM BKN020
     FM062300 21012KT P6SM SCT100=



000
FTUS41 KILN 060500
TAFLUK
TAF
KLUK 060539Z 0606/0706 00000KT P6SM SKC
     FM061300 20006KT P6SM SCT250
     FM062300 20007KT P6SM SCT100 SCT250=



000
FTUS41 KILN 060500
TAFILN
TAF
KILN 060539Z 0606/0706 00000KT P6SM SKC
     FM061300 19007KT P6SM SCT250
     FM061700 20011KT P6SM SCT020
      TEMPO 0618/0622 BKN020
     FM062300 21012KT P6SM SCT100=



000
FTUS41 KILN 060500
TAFLCK
TAF
KLCK 060539Z 0606/0706 00000KT P6SM SKC
     FM061300 20007KT P6SM SCT250
     FM061700 20011KT P6SM BKN020
     FM062300 21012KT P6SM SCT100=



000
FTUS41 KILN 060500
TAFDAY
TAF
KDAY 060539Z 0606/0706 26003KT P6SM SKC
     FM061300 19008KT P6SM SCT250
     FM061700 20011KT P6SM BKN020
     FM062300 21012KT P6SM SCT100=



000
FTUS41 KILN 060500
TAFLUK
TAF
KLUK 060539Z 0606/0706 00000KT P6SM SKC
     FM061300 20006KT P6SM SCT250
     FM062300 20007KT P6SM SCT100 SCT250=



000
FTUS41 KILN 060500
TAFCVG
TAF
KCVG 060539Z 0606/0712 VRB03KT P6SM SKC
     FM061300 19007KT P6SM SCT250
     FM062300 21008KT P6SM SCT100 SCT250=



000
FTUS41 KILN 060500
TAFCMH
TAF
KCMH 060539Z 0606/0706 00000KT P6SM SKC
     FM061300 20007KT P6SM SCT250
     FM061700 20011KT P6SM BKN020
     FM062300 21012KT P6SM SCT100=



000
FTUS41 KILN 060500
TAFDAY
TAF
KDAY 060539Z 0606/0706 26003KT P6SM SKC
     FM061300 19008KT P6SM SCT250
     FM061700 20011KT P6SM BKN020
     FM062300 21012KT P6SM SCT100=



000
FTUS41 KILN 060500
TAFLCK
TAF
KLCK 060539Z 0606/0706 00000KT P6SM SKC
     FM061300 20007KT P6SM SCT250
     FM061700 20011KT P6SM BKN020
     FM062300 21012KT P6SM SCT100=



000
FTUS41 KILN 060500
TAFILN
TAF
KILN 060539Z 0606/0706 00000KT P6SM SKC
     FM061300 19007KT P6SM SCT250
     FM061700 20011KT P6SM SCT020
      TEMPO 0618/0622 BKN020
     FM062300 21012KT P6SM SCT100=



000
FTUS41 KILN 060300 AAA
TAFILN
TAF AMD
KILN 060345Z 0604/0624 00000KT P6SM SKC
     FM061300 19007KT P6SM SCT250=



000
FTUS41 KILN 060300 AAA
TAFLUK
TAF AMD
KLUK 060345Z 0604/0624 00000KT P6SM SKC
     FM061300 20006KT P6SM SCT250=



000
FTUS41 KILN 060300 AAA
TAFDAY
TAF AMD
KDAY 060345Z 0604/0624 26003KT P6SM SKC
     FM061300 19008KT P6SM SCT250=



000
FTUS41 KILN 060300 AAA
TAFCMH
TAF AMD
KCMH 060345Z 0604/0624 00000KT P6SM SKC
     FM061300 20007KT P6SM SCT250=



000
FTUS41 KILN 060300 AAA
TAFCVG
TAF AMD
KCVG 060345Z 0604/0706 VRB03KT P6SM SKC
     FM061300 19007KT P6SM SCT250
     FM062300 23007KT P6SM SCT080 BKN250=



000
FTUS41 KILN 060300 AAA
TAFLCK
TAF AMD
KLCK 060345Z 0604/0624 00000KT P6SM SKC
     FM061300 20007KT P6SM SCT250=



000
FTUS41 KILN 060300 AAA
TAFLCK
TAF AMD
KLCK 060345Z 0604/0624 00000KT P6SM SKC
     FM061300 20007KT P6SM SCT250=



000
FTUS41 KILN 060300 AAA
TAFCMH
TAF AMD
KCMH 060345Z 0604/0624 00000KT P6SM SKC
     FM061300 20007KT P6SM SCT250=



000
FTUS41 KILN 060300 AAA
TAFILN
TAF AMD
KILN 060345Z 0604/0624 00000KT P6SM SKC
     FM061300 19007KT P6SM SCT250=



000
FTUS41 KILN 060300 AAA
TAFCVG
TAF AMD
KCVG 060345Z 0604/0706 VRB03KT P6SM SKC
     FM061300 19007KT P6SM SCT250
     FM062300 23007KT P6SM SCT080 BKN250=



000
FTUS41 KILN 060300 AAA
TAFLUK
TAF AMD
KLUK 060345Z 0604/0624 00000KT P6SM SKC
     FM061300 20006KT P6SM SCT250=



000
FTUS41 KILN 060300 AAA
TAFDAY
TAF AMD
KDAY 060345Z 0604/0624 26003KT P6SM SKC
     FM061300 19008KT P6SM SCT250=



000
FTUS41 KILN 052300
TAFLUK
TAF
KLUK 052320Z 0600/0624 01008KT P6SM SCT045
     FM060200 00000KT P6SM SKC
     FM061300 20006KT P6SM SCT250=



000
FTUS41 KILN 052300
TAFCVG
TAF
KCVG 052320Z 0600/0706 35007KT P6SM FEW040
     FM060500 VRB02KT P6SM SKC
     FM061300 19007KT P6SM SCT250
     FM062300 23007KT P6SM SCT080 BKN250=



000
FTUS41 KILN 052300
TAFDAY
TAF
KDAY 052320Z 0600/0624 34006KT P6SM SCT040
     FM060400 VRB02KT P6SM SKC
     FM061300 19008KT P6SM SCT250=



000
FTUS41 KILN 052300
TAFCMH
TAF
KCMH 052320Z 0600/0624 34010KT P6SM BKN040
     FM060500 VRB02KT P6SM SKC
     FM061300 20007KT P6SM SCT250=



000
FTUS41 KILN 052300
TAFILN
TAF
KILN 052320Z 0600/0624 34009KT P6SM FEW040
     FM060300 VRB02KT P6SM SKC
     FM061300 19007KT P6SM SCT250=



000
FTUS41 KILN 052300
TAFLCK
TAF
KLCK 052320Z 0600/0624 33010KT P6SM SCT040
     FM060500 VRB02KT P6SM SKC
     FM061300 20007KT P6SM SCT250=



000
FTUS41 KILN 052100 AAA
TAFDAY
TAF AMD
KDAY 052105Z 0521/0618 34015KT P6SM SCT040 SCT140 BKN200
     FM060000 34005KT P6SM FEW035
     FM060400 VRB02KT P6SM SKC
     FM061300 19008KT P6SM FEW250=



000
FTUS41 KILN 052100 AAA
TAFCVG
TAF AMD
KCVG 052105Z 0521/0624 34013KT P6SM FEW040 SCT140 BKN200
     FM060000 01005KT P6SM FEW035
     FM060500 VRB02KT P6SM SKC
     FM061300 19007KT P6SM FEW250=



000
FTUS41 KILN 052100 AAA
TAFLUK
TAF AMD
KLUK 052105Z 0521/0618 32009KT P6SM FEW040 SCT140 BKN200
     FM060000 35003KT P6SM FEW035
     FM060200 00000KT P6SM SKC
     FM061300 20006KT P6SM FEW250=



000
FTUS41 KILN 052100 AAA
TAFLCK
TAF AMD
KLCK 052105Z 0521/0618 32009KT P6SM BKN035 BKN110
     FM060000 35004KT P6SM FEW035
     FM060500 VRB02KT P6SM SKC=



000
FTUS41 KILN 052100 AAA
TAFCMH
TAF AMD
KCMH 052105Z 0521/0618 33015G18KT P6SM SCT035 OVC100
     FM060000 36005KT P6SM FEW035
     FM060500 VRB02KT P6SM SKC=



000
FTUS41 KILN 052100 AAA
TAFILN
TAF AMD
KILN 052105Z 0521/0618 34013KT P6SM FEW040 SCT140 BKN200
     FM060000 01004KT P6SM FEW035
     FM060300 VRB02KT P6SM SKC
     FM061300 19007KT P6SM FEW250=



000
FTUS41 KILN 051700
TAFLUK
TAF
KLUK 051733Z 0518/0618 36010KT P6SM SCT035 OVC090
     FM052100 36006KT P6SM BKN035
     FM060000 35003KT P6SM FEW035
     FM060200 00000KT P6SM SKC
     FM061300 20006KT P6SM FEW250=



000
FTUS41 KILN 051700
TAFLCK
TAF
KLCK 051733Z 0518/0618 36012KT P6SM SCT030 OVC080
     FM052000 34008KT P6SM BKN035
     FM060000 35004KT P6SM FEW035
     FM060500 VRB02KT P6SM SKC=



000
FTUS41 KILN 051700
TAFDAY
TAF
KDAY 051733Z 0518/0618 33010KT P6SM SCT035 OVC100
     FM052000 34009KT P6SM BKN035
     FM060000 34005KT P6SM FEW035
     FM060400 VRB02KT P6SM SKC
     FM061300 19008KT P6SM FEW250=



000
FTUS41 KILN 051700
TAFILN
TAF
KILN 051733Z 0518/0618 36011KT P6SM SCT035 OVC090
     FM052100 35009KT P6SM BKN035
     FM060000 01004KT P6SM FEW035
     FM060300 VRB02KT P6SM SKC
     FM061300 19007KT P6SM FEW250=



000
FTUS41 KILN 051700
TAFCVG
TAF
KCVG 051733Z 0518/0624 01010KT P6SM SCT035 OVC080
     FM052100 35008KT P6SM BKN035
     FM060000 01005KT P6SM FEW035
     FM060500 VRB02KT P6SM SKC
     FM061300 19007KT P6SM FEW250=



000
FTUS41 KILN 051700
TAFCMH
TAF
KCMH 051733Z 0518/0618 36012KT P6SM SCT030 OVC080
     FM052000 34009KT P6SM BKN035
     FM060000 36005KT P6SM FEW035
     FM060500 VRB02KT P6SM SKC=



000
FTUS41 KILN 051500 AAA
TAFCVG
TAF AMD
KCVG 051510Z 0515/0618 01010KT P6SM SCT025 OVC080
     FM051900 35008KT P6SM BKN025
     FM060000 01005KT P6SM FEW030
     FM060500 VRB02KT P6SM SKC
     FM061300 19005KT P6SM FEW200=



000
FTUS41 KILN 051100
TAFCVG
TAF
KCVG 051137Z 0512/0618 01010KT P6SM OVC080
      TEMPO 0512/0513 2SM -SN BKN025
     FM051900 35008KT P6SM BKN025
     FM060000 01005KT P6SM FEW030
     FM060500 VRB02KT P6SM SKC
     FM061300 19005KT P6SM FEW200=



000
FTUS41 KILN 051100
TAFLCK
TAF
KLCK 051137Z 0512/0612 35012KT P6SM OVC080
     FM051700 34008KT P6SM BKN025
     FM060000 35004KT P6SM FEW030
     FM060500 VRB02KT P6SM SKC=



000
FTUS41 KILN 051100
TAFDAY
TAF
KDAY 051137Z 0512/0612 01012KT P6SM OVC100
     FM051800 34009KT P6SM BKN022
     FM060000 34005KT P6SM FEW025
     FM060400 VRB02KT P6SM SKC=



000
FTUS41 KILN 051100
TAFILN
TAF
KILN 051137Z 0512/0612 01011KT P6SM OVC080
      TEMPO 0512/0513 2SM -SN BKN025
     FM051900 35009KT P6SM BKN025
     FM060000 01004KT P6SM FEW030
     FM060300 VRB02KT P6SM SKC=



000
FTUS41 KILN 051100
TAFCVG
TAF
KCVG 051137Z 0512/0618 01010KT P6SM OVC080
      TEMPO 0512/0513 2SM -SN BKN025
     FM051900 35008KT P6SM BKN025
     FM060000 01005KT P6SM FEW030
     FM060500 VRB02KT P6SM SKC
     FM061300 19005KT P6SM FEW200=



000
FTUS41 KILN 051100
TAFLCK
TAF
KLCK 051137Z 0512/0612 35012KT P6SM OVC080
     FM051700 34008KT P6SM BKN025
     FM060000 35004KT P6SM FEW030
     FM060500 VRB02KT P6SM SKC=



000
FTUS41 KILN 051100
TAFCMH
TAF
KCMH 051137Z 0512/0612 36012KT P6SM OVC080
     FM051700 34009KT P6SM BKN025
     FM060000 36005KT P6SM FEW030
     FM060500 VRB02KT P6SM SKC=



000
FTUS41 KILN 051100
TAFCMH
TAF
KCMH 051137Z 0512/0612 36012KT P6SM OVC080
     FM051700 34009KT P6SM BKN025
     FM060000 36005KT P6SM FEW030
     FM060500 VRB02KT P6SM SKC=



000
FTUS41 KILN 051100
TAFLUK
TAF
KLUK 051137Z 0512/0612 01008KT P6SM OVC080
      TEMPO 0512/0513 2SM -SN BKN030
     FM051900 36006KT P6SM BKN030
     FM060000 35003KT P6SM FEW035
     FM060200 00000KT P6SM SKC=



000
FTUS41 KILN 051100
TAFDAY
TAF
KDAY 051137Z 0512/0612 01012KT P6SM OVC100
     FM051800 34009KT P6SM BKN022
     FM060000 34005KT P6SM FEW025
     FM060400 VRB02KT P6SM SKC=



000
FTUS41 KILN 051100
TAFILN
TAF
KILN 051137Z 0512/0612 01011KT P6SM OVC080
      TEMPO 0512/0513 2SM -SN BKN025
     FM051900 35009KT P6SM BKN025
     FM060000 01004KT P6SM FEW030
     FM060300 VRB02KT P6SM SKC=



000
FTUS41 KILN 051100
TAFLUK
TAF
KLUK 051137Z 0512/0612 01008KT P6SM OVC080
      TEMPO 0512/0513 2SM -SN BKN030
     FM051900 36006KT P6SM BKN030
     FM060000 35003KT P6SM FEW035
     FM060200 00000KT P6SM SKC=



000
FTUS41 KILN 050900 AAA
TAFCMH
TAF AMD
KCMH 050902Z 0509/0606 35012KT P6SM OVC080
      TEMPO 0509/0510 3SM -SN BKN030
     FM051500 34009KT P6SM BKN025
     FM060000 33005KT P6SM FEW030=



000
FTUS41 KILN 050900 AAA
TAFLCK
TAF AMD
KLCK 050902Z 0509/0606 34012KT P6SM OVC080
      TEMPO 0509/0510 3SM -SN BKN030
     FM051500 35008KT P6SM BKN025
     FM060000 33005KT P6SM FEW030=



000
FTUS41 KILN 050900 AAA
TAFILN
TAF AMD
KILN 050902Z 0509/0606 35011KT P6SM OVC070
      TEMPO 0509/0510 2SM -SN BKN025
     FM051600 35009KT P6SM BKN025
     FM060000 34004KT P6SM FEW030=



000
FTUS41 KILN 050800 AAA
TAFCVG
TAF AMD
KCVG 050809Z 0508/0612 36011KT P6SM OVC060
      TEMPO 0508/0510 3SM -SN BKN030
     FM051600 34009KT P6SM BKN025
     FM060000 34005KT P6SM SCT030
     FM060600 VRB02KT P6SM SKC=



000
FTUS41 KILN 050800 AAA
TAFLUK
TAF AMD
KLUK 050809Z 0508/0606 36010KT P6SM OVC060
      TEMPO 0508/0510 3SM -SN BKN035
     FM051600 34006KT P6SM BKN030
     FM060000 35003KT P6SM SCT035=



000
FTUS41 KILN 050800 AAA
TAFCVG
TAF AMD
KCVG 050809Z 0508/0612 36011KT P6SM OVC060
      TEMPO 0508/0510 3SM -SN BKN030
     FM051600 34009KT P6SM BKN025
     FM060000 34005KT P6SM SCT030
     FM060600 VRB02KT P6SM SKC=



000
FTUS41 KILN 050800 AAA
TAFLUK
TAF AMD
KLUK 050809Z 0508/0606 36010KT P6SM OVC060
      TEMPO 0508/0510 3SM -SN BKN035
     FM051600 34006KT P6SM BKN030
     FM060000 35003KT P6SM SCT035=



000
FTUS41 KILN 050500
TAFLCK
TAF
KLCK 050540Z 0506/0606 34012KT P6SM OVC080
     FM051500 35008KT P6SM BKN025
     FM060000 33005KT P6SM FEW030=



000
FTUS41 KILN 050500
TAFCVG
TAF
KCVG 050540Z 0506/0612 36011KT P6SM OVC060
     FM051600 34009KT P6SM BKN025
     FM060000 34005KT P6SM SCT030
     FM060600 VRB02KT P6SM SKC=



000
FTUS41 KILN 050500
TAFCMH
TAF
KCMH 050540Z 0506/0606 34012KT P6SM OVC080
     FM051500 34009KT P6SM BKN025
     FM060000 33005KT P6SM FEW030=



000
FTUS41 KILN 050500
TAFDAY
TAF
KDAY 050540Z 0506/0606 34012KT P6SM OVC090
     FM051500 34007KT P6SM BKN025
     FM060000 31005KT P6SM FEW030=



000
FTUS41 KILN 050500
TAFLUK
TAF
KLUK 050540Z 0506/0606 36010KT P6SM OVC060
     FM051600 34006KT P6SM BKN030
     FM060000 35003KT P6SM SCT035=



000
FTUS41 KILN 050500
TAFILN
TAF
KILN 050540Z 0506/0606 35011KT P6SM OVC070
     FM051600 35009KT P6SM BKN025
     FM060000 34004KT P6SM FEW030=



000
FTUS41 KILN 050500
TAFLCK
TAF
KLCK 050540Z 0506/0606 34012KT P6SM OVC080
     FM051500 35008KT P6SM BKN025
     FM060000 33005KT P6SM FEW030=



000
FTUS41 KILN 050500
TAFDAY
TAF
KDAY 050540Z 0506/0606 34012KT P6SM OVC090
     FM051500 34007KT P6SM BKN025
     FM060000 31005KT P6SM FEW030=



000
FTUS41 KILN 050500
TAFLUK
TAF
KLUK 050540Z 0506/0606 36010KT P6SM OVC060
     FM051600 34006KT P6SM BKN030
     FM060000 35003KT P6SM SCT035=



000
FTUS41 KILN 050500
TAFCVG
TAF
KCVG 050540Z 0506/0612 36011KT P6SM OVC060
     FM051600 34009KT P6SM BKN025
     FM060000 34005KT P6SM SCT030
     FM060600 VRB02KT P6SM SKC=



000
FTUS41 KILN 050500
TAFCMH
TAF
KCMH 050540Z 0506/0606 34012KT P6SM OVC080
     FM051500 34009KT P6SM BKN025
     FM060000 33005KT P6SM FEW030=



000
FTUS41 KILN 050500
TAFILN
TAF
KILN 050540Z 0506/0606 35011KT P6SM OVC070
     FM051600 35009KT P6SM BKN025
     FM060000 34004KT P6SM FEW030=



000
FTUS41 KILN 050400 AAB
TAFILN
TAF AMD
KILN 050454Z 0505/0524 34011KT P6SM OVC050
     FM051200 34010KT P6SM BKN025=



000
FTUS41 KILN 050400 AAB
TAFILN
TAF AMD
KILN 050454Z 0505/0524 34011KT P6SM OVC050
     FM051200 34010KT P6SM BKN025=



000
FTUS41 KILN 050400 AAD
TAFLCK
TAF AMD
KLCK 050449Z 0505/0524 33012KT P6SM OVC060
     FM051300 33010KT P6SM BKN025=



000
FTUS41 KILN 050400 AAE
TAFCMH
TAF AMD
KCMH 050449Z 0505/0524 33012KT P6SM OVC060
     FM051300 33010KT P6SM BKN025=



000
FTUS41 KILN 050300 AAC
TAFLCK
TAF AMD
KLCK 050358Z 0504/0524 33012G18KT P6SM -SN SCT013 BKN023 OVC045
     FM050600 33010KT P6SM SCT018 OVC060
     FM051300 33010KT P6SM BKN025=



000
FTUS41 KILN 050300 AAD
TAFCVG
TAF AMD
KCVG 050358Z 0504/0606 34014KT 3/4SM -SN BR VV015
     FM050800 36010KT 4SM -SN OVC022
     FM051200 34010KT P6SM BKN025
     FM060000 35003KT P6SM BKN025=



000
FTUS41 KILN 050300 AAD
TAFCMH
TAF AMD
KCMH 050358Z 0504/0524 32012KT P6SM -SN BKN021 BKN040 OVC060
     FM050600 33010KT P6SM SCT018 OVC060
     FM051300 33010KT P6SM BKN025=



000
FTUS41 KILN 050300 AAA
TAFILN
TAF AMD
KILN 050358Z 0504/0524 32010KT 4SM -SN OVC035
      TEMPO 0504/0506 2SM -SN BR OVC022
     FM050800 35008KT P6SM -SN OVC020
     FM051200 34010KT P6SM BKN025=



000
FTUS41 KILN 050300 AAC
TAFLUK
TAF AMD
KLUK 050358Z 0504/0524 35009KT 1 1/2SM -SN BR OVC017
     FM050900 36008KT 4SM -SN OVC025
     FM051200 32010KT P6SM BKN028=



000
FTUS41 KILN 050300 AAA
TAFILN
TAF AMD
KILN 050358Z 0504/0524 32010KT 4SM -SN OVC035
      TEMPO 0504/0506 2SM -SN BR OVC022
     FM050800 35008KT P6SM -SN OVC020
     FM051200 34010KT P6SM BKN025=



000
FTUS41 KILN 050300 AAC
TAFLCK
TAF AMD
KLCK 050358Z 0504/0524 33012G18KT P6SM -SN SCT013 BKN023 OVC045
     FM050600 33010KT P6SM SCT018 OVC060
     FM051300 33010KT P6SM BKN025=



000
FTUS41 KILN 050300 AAD
TAFDAY
TAF AMD
KDAY 050358Z 0504/0524 33016KT P6SM OVC070
     FM051200 34010KT P6SM BKN025=



000
FTUS41 KILN 050300 AAC
TAFLUK
TAF AMD
KLUK 050358Z 0504/0524 35009KT 1 1/2SM -SN BR OVC017
     FM050900 36008KT 4SM -SN OVC025
     FM051200 32010KT P6SM BKN028=



000
FTUS41 KILN 050300 AAD
TAFCMH
TAF AMD
KCMH 050358Z 0504/0524 32012KT P6SM -SN BKN021 BKN040 OVC060
     FM050600 33010KT P6SM SCT018 OVC060
     FM051300 33010KT P6SM BKN025=



000
FTUS41 KILN 050300 AAD
TAFCVG
TAF AMD
KCVG 050358Z 0504/0606 34014KT 3/4SM -SN BR VV015
     FM050800 36010KT 4SM -SN OVC022
     FM051200 34010KT P6SM BKN025
     FM060000 35003KT P6SM BKN025=



000
FTUS41 KILN 050200 AAC
TAFCVG
TAF AMD
KCVG 050216Z 0502/0606 33014G21KT 1 1/2SM -SN BR SCT007 BKN013
      OVC022
     FM050400 36010KT 2SM -SN BR OVC012
     FM050900 36010KT 4SM -SN OVC022
     FM051200 34010KT P6SM BKN025
     FM060000 35003KT P6SM BKN025=



000
FTUS41 KILN 050200 AAC
TAFCVG
TAF AMD
KCVG 050216Z 0502/0606 33014G21KT 1 1/2SM -SN BR SCT007 BKN013
      OVC022
     FM050400 36010KT 2SM -SN BR OVC012
     FM050900 36010KT 4SM -SN OVC022
     FM051200 34010KT P6SM BKN025
     FM060000 35003KT P6SM BKN025=



000
FTUS41 KILN 050200 AAC
TAFCMH
TAF AMD
KCMH 050208Z 0502/0524 32013KT 3SM -SN BR FEW009 SCT012 OVC025
     FM050400 34010KT P6SM SCT012 OVC060
     FM051300 33010KT P6SM BKN025=



000
FTUS41 KILN 050200 AAB
TAFLCK
TAF AMD
KLCK 050206Z 0502/0524 32008KT 1 1/2SM -SN BKN007 BKN014 OVC021
     FM050400 34010KT 4SM -SN BR SCT012 OVC027
     FM050700 33010KT P6SM SCT018 OVC060
     FM051300 33010KT P6SM BKN025=



000
FTUS41 KILN 050200 AAC
TAFDAY
TAF AMD
KDAY 050206Z 0502/0524 33014KT P6SM OVC060
      TEMPO 0502/0504 4SM -SN BR SCT007 OVC024
     FM050400 34011KT P6SM SCT015 OVC060
     FM051200 34010KT P6SM BKN025=



000
FTUS41 KILN 050200 AAB
TAFILN
TAF AMD
KILN 050206Z 0502/0524 34008KT 3/4SM -SN BR OVC008
     FM050400 35010KT 1SM -SN OVC012
     FM051000 35008KT 4SM -SN OVC020
     FM051200 34010KT P6SM BKN025=



000
FTUS41 KILN 050200 AAB
TAFLUK
TAF AMD
KLUK 050206Z 0502/0524 35011KT 3/4SM -SN BR OVC009
     FM050400 35009KT 1SM -SN BR OVC015
     FM050900 36008KT 4SM -SN OVC025
     FM051200 32010KT P6SM BKN028=



000
FTUS41 KILN 050200 AAB
TAFCMH
TAF AMD
KCMH 050206Z 0502/0524 32009KT 1 1/2SM -SN BR FEW009 BKN014 OVC027
     FM050400 34010KT 4SM -SN BR OVC019
     FM050700 33010KT P6SM SCT018 OVC060
     FM051300 33010KT P6SM BKN025=



000
FTUS41 KILN 050200 AAB
TAFCVG
TAF AMD
KCVG 050206Z 0502/0606 32015KT 3/4SM -SN BR OVC008
     FM050400 36010KT 1SM -SN BR OVC012
     FM050900 36010KT 4SM -SN OVC022
     FM051200 34010KT P6SM BKN025
     FM060000 35003KT P6SM BKN025=



000
FTUS41 KILN 050100 AAB
TAFDAY
TAF AMD
KDAY 050159Z 0502/0524 33013KT P6SM FEW024 OVC060
      TEMPO 0502/0504 4SM -SN BR SCT007 OVC024
     FM050400 34011KT P6SM SCT015 OVC030
     FM051200 34010KT P6SM BKN025=



000
FTUS41 KILN 050100 AAB
TAFDAY
TAF AMD
KDAY 050159Z 0502/0524 33013KT P6SM FEW024 OVC060
      TEMPO 0502/0504 4SM -SN BR SCT007 OVC024
     FM050400 34011KT P6SM SCT015 OVC030
     FM051200 34010KT P6SM BKN025=



000
FTUS41 KILN 050100 AAA
TAFDAY
TAF AMD
KDAY 050101Z 0501/0524 33015KT 4SM -SN FEW022 SCT027 OVC030
      TEMPO 0501/0504 2SM -SN BR SCT007 OVC023
     FM050400 34011KT P6SM SCT015 OVC030
     FM051200 34010KT P6SM BKN025=



000
FTUS41 KILN 050100 AAA
TAFLCK
TAF AMD
KLCK 050101Z 0501/0524 32010KT 1SM -SN BKN005 OVC015
     FM050400 34010KT 4SM -SN BR SCT012 OVC027
     FM050700 33010KT P6SM SCT018 OVC120
     FM051300 33010KT P6SM BKN025=



000
FTUS41 KILN 050100 AAA
TAFCMH
TAF AMD
KCMH 050101Z 0501/0524 34009KT 1 1/2SM -SN BR SCT007 OVC015
     FM050400 34010KT 4SM -SN BR OVC019
     FM050700 33010KT P6SM SCT018 OVC120
     FM051300 33010KT P6SM BKN025=



000
FTUS41 KILN 050100 AAA
TAFCVG
TAF AMD
KCVG 050101Z 0501/0606 33013KT 3/4SM -SN BR BKN007 OVC011
     FM050400 36010KT 4SM -SN BR OVC012
     FM050800 36010KT P6SM SCT022 OVC100
     FM051200 34010KT P6SM BKN025
     FM060000 35003KT P6SM BKN025=



000
FTUS41 KILN 050100 AAA
TAFLUK
TAF AMD
KLUK 050101Z 0501/0524 34011G19KT 3/4SM -SN BR VV009
     FM050400 35009KT 5SM -SN BR OVC015
     FM050800 36008KT P6SM SCT025 OVC100
     FM051200 32010KT P6SM BKN028=



000
FTUS41 KILN 050100 AAA
TAFILN
TAF AMD
KILN 050101Z 0501/0524 34013KT 3/4SM -SN BR FEW004 OVC010
     FM050400 35010KT 3SM -SN OVC012
     FM050700 35008KT P6SM SCT020 OVC100
     FM051200 34010KT P6SM BKN025=



000
FTUS41 KILN 050100 AAA
TAFLCK
TAF AMD
KLCK 050101Z 0501/0524 32010KT 1SM -SN BKN005 OVC015
     FM050400 34010KT 4SM -SN BR SCT012 OVC027
     FM050700 33010KT P6SM SCT018 OVC120
     FM051300 33010KT P6SM BKN025=



000
FTUS41 KILN 050100 AAA
TAFDAY
TAF AMD
KDAY 050101Z 0501/0524 33015KT 4SM -SN FEW022 SCT027 OVC030
      TEMPO 0501/0504 2SM -SN BR SCT007 OVC023
     FM050400 34011KT P6SM SCT015 OVC030
     FM051200 34010KT P6SM BKN025=



000
FTUS41 KILN 050100 AAA
TAFCMH
TAF AMD
KCMH 050101Z 0501/0524 34009KT 1 1/2SM -SN BR SCT007 OVC015
     FM050400 34010KT 4SM -SN BR OVC019
     FM050700 33010KT P6SM SCT018 OVC120
     FM051300 33010KT P6SM BKN025=



000
FTUS41 KILN 050100 AAA
TAFCVG
TAF AMD
KCVG 050101Z 0501/0606 33013KT 3/4SM -SN BR BKN007 OVC011
     FM050400 36010KT 4SM -SN BR OVC012
     FM050800 36010KT P6SM SCT022 OVC100
     FM051200 34010KT P6SM BKN025
     FM060000 35003KT P6SM BKN025=



000
FTUS41 KILN 050100 AAA
TAFILN
TAF AMD
KILN 050101Z 0501/0524 34013KT 3/4SM -SN BR FEW004 OVC010
     FM050400 35010KT 3SM -SN OVC012
     FM050700 35008KT P6SM SCT020 OVC100
     FM051200 34010KT P6SM BKN025=



000
FTUS41 KILN 050100 AAA
TAFLUK
TAF AMD
KLUK 050101Z 0501/0524 34011G19KT 3/4SM -SN BR VV009
     FM050400 35009KT 5SM -SN BR OVC015
     FM050800 36008KT P6SM SCT025 OVC100
     FM051200 32010KT P6SM BKN028=



000
FTUS41 KILN 042300
TAFLCK
TAF
KLCK 042337Z 0500/0524 32012KT 1 1/2SM -SN SCT011 BKN025 OVC050
      TEMPO 0500/0504 1/2SM SN BKN011 OVC025
     FM050400 34010KT 4SM -SN BR SCT012 OVC027
     FM050700 33010KT P6SM SCT018 OVC120
     FM051300 33010KT P6SM BKN025=



000
FTUS41 KILN 042300
TAFCVG
TAF
KCVG 042337Z 0500/0606 32013G19KT 1SM -SN BR SCT007 OVC019
      TEMPO 0500/0504 1/2SM SN FZFG FEW005 OVC008
     FM050400 36010KT 4SM -SN BR OVC012
     FM050800 36010KT P6SM SCT022 OVC100
     FM051200 34010KT P6SM BKN025
     FM060000 35003KT P6SM BKN025=



000
FTUS41 KILN 042300
TAFILN
TAF
KILN 042337Z 0500/0524 33009KT 1 1/2SM -SN BR SCT005 OVC022
      TEMPO 0500/0504 3/4SM -SN BR BKN005 OVC022
     FM050400 35010KT 3SM -SN OVC012
     FM050700 35008KT P6SM SCT020 OVC100
     FM051200 34010KT P6SM BKN025=



000
FTUS41 KILN 042300
TAFCMH
TAF
KCMH 042337Z 0500/0524 32009KT 1 1/2SM -SN SCT011 BKN026 OVC035
      TEMPO 0500/0504 1/2SM SN BKN011 OVC025
     FM050400 34010KT 4SM -SN BR OVC019
     FM050700 33010KT P6SM SCT018 OVC120
     FM051300 33010KT P6SM BKN025=



000
FTUS41 KILN 042300
TAFLUK
TAF
KLUK 042337Z 0500/0524 34009KT 1 1/2SM -SN BR SCT007 OVC023
      TEMPO 0500/0504 1/2SM SN FZFG FEW006 OVC009
     FM050400 35009KT 5SM -SN BR OVC015
     FM050800 36008KT P6SM SCT025 OVC100
     FM051200 32010KT P6SM BKN028=



000
FTUS41 KILN 042300
TAFDAY
TAF
KDAY 042337Z 0500/0524 33014KT 1 1/2SM -SN BR SCT007 OVC023
      TEMPO 0500/0504 1/2SM SN FZFG BKN007 OVC023
     FM050400 34011KT P6SM SCT015 OVC030
     FM051200 34010KT P6SM BKN025=



000
FTUS41 KILN 042300
TAFCVG
TAF
KCVG 042337Z 0500/0606 32013G19KT 1SM -SN BR SCT007 OVC019
      TEMPO 0500/0504 1/2SM SN FZFG FEW005 OVC008
     FM050400 36010KT 4SM -SN BR OVC012
     FM050800 36010KT P6SM SCT022 OVC100
     FM051200 34010KT P6SM BKN025
     FM060000 35003KT P6SM BKN025=



000
FTUS41 KILN 042300
TAFCMH
TAF
KCMH 042337Z 0500/0524 32009KT 1 1/2SM -SN SCT011 BKN026 OVC035
      TEMPO 0500/0504 1/2SM SN BKN011 OVC025
     FM050400 34010KT 4SM -SN BR OVC019
     FM050700 33010KT P6SM SCT018 OVC120
     FM051300 33010KT P6SM BKN025=



000
FTUS41 KILN 042300
TAFLUK
TAF
KLUK 042337Z 0500/0524 34009KT 1 1/2SM -SN BR SCT007 OVC023
      TEMPO 0500/0504 1/2SM SN FZFG FEW006 OVC009
     FM050400 35009KT 5SM -SN BR OVC015
     FM050800 36008KT P6SM SCT025 OVC100
     FM051200 32010KT P6SM BKN028=



000
FTUS41 KILN 042300
TAFDAY
TAF
KDAY 042337Z 0500/0524 33014KT 1 1/2SM -SN BR SCT007 OVC023
      TEMPO 0500/0504 1/2SM SN FZFG BKN007 OVC023
     FM050400 34011KT P6SM SCT015 OVC030
     FM051200 34010KT P6SM BKN025=



000
FTUS41 KILN 042300
TAFILN
TAF
KILN 042337Z 0500/0524 33009KT 1 1/2SM -SN BR SCT005 OVC022
      TEMPO 0500/0504 3/4SM -SN BR BKN005 OVC022
     FM050400 35010KT 3SM -SN OVC012
     FM050700 35008KT P6SM SCT020 OVC100
     FM051200 34010KT P6SM BKN025=



000
FTUS41 KILN 042300
TAFLCK
TAF
KLCK 042337Z 0500/0524 32012KT 1 1/2SM -SN SCT011 BKN025 OVC050
      TEMPO 0500/0504 1/2SM SN BKN011 OVC025
     FM050400 34010KT 4SM -SN BR SCT012 OVC027
     FM050700 33010KT P6SM SCT018 OVC120
     FM051300 33010KT P6SM BKN025=



000
FTUS41 KILN 042200 AAC
TAFDAY
TAF AMD
KDAY 042249Z 0423/0518 33012KT 1SM -SN SCT015 SCT020 OVC028
     FM050200 34011KT P6SM SCT015 OVC030
     FM051000 34010KT P6SM BKN025=



000
FTUS41 KILN 042200 AAC
TAFLCK
TAF AMD
KLCK 042249Z 0423/0518 32012KT 5SM -SN SCT027 BKN035 OVC050
     FM050200 34010KT 4SM -SN BR SCT012 OVC027
     FM050600 33010KT P6SM SCT018 OVC120
     FM051300 33010KT P6SM BKN025=



000
FTUS41 KILN 042200 AAB
TAFDAY
TAF AMD
KDAY 042237Z 0423/0518 32012KT 2SM -SN SCT017 SCT023 OVC030
     FM050200 34011KT P6SM SCT015 OVC030
     FM051000 34010KT P6SM BKN025=



000
FTUS41 KILN 042200 AAB
TAFDAY
TAF AMD
KDAY 042237Z 0423/0518 32012KT 2SM -SN SCT017 SCT023 OVC030
     FM050200 34011KT P6SM SCT015 OVC030
     FM051000 34010KT P6SM BKN025=



000
FTUS41 KILN 042200 AAC
TAFCVG
TAF AMD
KCVG 042219Z 0422/0524 34015KT 1/2SM SN FG VV008
     FM050000 35012KT 1SM -SN BR OVC006
     FM050400 36010KT 4SM -SN BR OVC012
     FM050800 36010KT P6SM SCT022 OVC100
     FM051200 34010KT P6SM BKN025=



000
FTUS41 KILN 042100 AAB
TAFLCK
TAF AMD
KLCK 042101Z 0421/0518 31004KT P6SM BKN017 BKN022 OVC050
     FM050200 34010KT 4SM -SN BR OVC012
     FM050600 33010KT P6SM SCT018 OVC120
     FM051300 33010KT P6SM BKN025=



000
FTUS41 KILN 042100 AAB
TAFCMH
TAF AMD
KCMH 042101Z 0421/0518 32007KT 6SM HZ OVC016
     FM050200 34010KT 4SM -SN BR OVC012
     FM050600 33010KT P6SM SCT018 OVC120
     FM051300 33010KT P6SM BKN025=



000
FTUS41 KILN 042100 AAC
TAFILN
TAF AMD
KILN 042100Z 0421/0518 33010KT 1 1/2SM -SN BR OVC010
     FM050100 35010KT 2SM -SN OVC012
     FM050700 35008KT P6SM SCT020 OVC100
     FM051200 34010KT P6SM BKN025=



000
FTUS41 KILN 042000 AAB
TAFILN
TAF AMD
KILN 042058Z 0421/0518 35006KT 2SM -SN SCT015 OVC030
     FM042200 33010KT 1 1/2SM -SN BR OVC010
     FM050100 35010KT 2SM -SN OVC012
     FM050700 35008KT P6SM SCT020 OVC100
     FM051200 34010KT P6SM BKN025=



000
FTUS41 KILN 042000 AAB
TAFCVG
TAF AMD
KCVG 042058Z 0421/0524 34012KT 3/4SM -SN BR BKN005 OVC011
     FM050000 35012KT 1SM -SN BR OVC006
     FM050400 36010KT 4SM -SN BR OVC012
     FM050800 36010KT P6SM SCT022 OVC100
     FM051200 34010KT P6SM BKN025=



000
FTUS41 KILN 042000 AAA
TAFCVG
TAF AMD
KCVG 042020Z 0420/0524 32005KT 1SM -SN BR BKN007 OVC014
     FM050000 35012KT 1SM -SN BR OVC006
     FM050400 36010KT 4SM -SN BR OVC012
     FM050800 36010KT P6SM SCT022 OVC100
     FM051200 34010KT P6SM BKN025=



000
FTUS41 KILN 042000 AAA
TAFCMH
TAF AMD
KCMH 042020Z 0420/0518 31008KT 6SM HZ OVC012
      TEMPO 0420/0421 5SM -SN BR OVC016
     FM042100 32011KT 2SM -SN OVC012
     FM050300 34010KT 4SM -SN BR OVC015
     FM050600 33010KT P6SM SCT018 OVC120
     FM051300 33010KT P6SM BKN025=



000
FTUS41 KILN 042000 AAA
TAFILN
TAF AMD
KILN 042020Z 0420/0518 32011KT 3SM -SN HZ OVC013
     FM042200 33010KT 1 1/2SM -SN BR OVC010
     FM050100 35010KT 2SM -SN OVC012
     FM050700 35008KT P6SM SCT020 OVC100
     FM051200 34010KT P6SM BKN025=



000
FTUS41 KILN 042000 AAA
TAFLCK
TAF AMD
KLCK 042020Z 0420/0518 31006KT 5SM BR OVC015
      TEMPO 0420/0421 5SM -SN BR OVC016
     FM042100 32011KT 2SM -SN OVC012
     FM050300 34010KT 4SM -SN BR OVC015
     FM050600 33010KT P6SM SCT018 OVC120
     FM051300 33010KT P6SM BKN025=



000
FTUS41 KILN 042000 AAA
TAFLUK
TAF AMD
KLUK 042020Z 0420/0518 34006KT 3SM -SN BKN019 OVC026
      TEMPO 0420/0421 2SM -SN BR OVC011
     FM042100 34010KT 1 1/2SM -SN OVC011
     FM050100 35011KT 1SM -SN OVC008
     FM050400 35009KT 5SM -SN BR OVC015
     FM050800 36008KT P6SM SCT025 OVC100
     FM051200 32010KT P6SM BKN028=



000
FTUS41 KILN 042000 AAA
TAFCMH
TAF AMD
KCMH 042020Z 0420/0518 31008KT 6SM HZ OVC012
      TEMPO 0420/0421 5SM -SN BR OVC016
     FM042100 32011KT 2SM -SN OVC012
     FM050300 34010KT 4SM -SN BR OVC015
     FM050600 33010KT P6SM SCT018 OVC120
     FM051300 33010KT P6SM BKN025=



000
FTUS41 KILN 042000 AAA
TAFDAY
TAF AMD
KDAY 042020Z 0420/0518 32010KT 4SM HZ OVC017
     FM050200 34011KT P6SM SCT015 OVC060
     FM051000 34010KT P6SM BKN025=



000
FTUS41 KILN 042000 AAA
TAFCVG
TAF AMD
KCVG 042020Z 0420/0524 32005KT 1SM -SN BR BKN007 OVC014
     FM050000 35012KT 1SM -SN BR OVC006
     FM050400 36010KT 4SM -SN BR OVC012
     FM050800 36010KT P6SM SCT022 OVC100
     FM051200 34010KT P6SM BKN025=



000
FTUS41 KILN 042000 AAA
TAFILN
TAF AMD
KILN 042020Z 0420/0518 32011KT 3SM -SN HZ OVC013
     FM042200 33010KT 1 1/2SM -SN BR OVC010
     FM050100 35010KT 2SM -SN OVC012
     FM050700 35008KT P6SM SCT020 OVC100
     FM051200 34010KT P6SM BKN025=



000
FTUS41 KILN 042000 AAA
TAFLUK
TAF AMD
KLUK 042020Z 0420/0518 34006KT 3SM -SN BKN019 OVC026
      TEMPO 0420/0421 2SM -SN BR OVC011
     FM042100 34010KT 1 1/2SM -SN OVC011
     FM050100 35011KT 1SM -SN OVC008
     FM050400 35009KT 5SM -SN BR OVC015
     FM050800 36008KT P6SM SCT025 OVC100
     FM051200 32010KT P6SM BKN028=



000
FTUS41 KILN 042000 AAA
TAFLCK
TAF AMD
KLCK 042020Z 0420/0518 31006KT 5SM BR OVC015
      TEMPO 0420/0421 5SM -SN BR OVC016
     FM042100 32011KT 2SM -SN OVC012
     FM050300 34010KT 4SM -SN BR OVC015
     FM050600 33010KT P6SM SCT018 OVC120
     FM051300 33010KT P6SM BKN025=



000
FTUS41 KILN 042000 AAA
TAFDAY
TAF AMD
KDAY 042020Z 0420/0518 32010KT 4SM HZ OVC017
     FM050200 34011KT P6SM SCT015 OVC060
     FM051000 34010KT P6SM BKN025=



000
FTUS41 KILN 041700
TAFILN
TAF
KILN 041738Z 0418/0518 34007KT 5SM -SN BR SCT009 OVC024
      TEMPO 0418/0420 2SM -RA BR BKN004
     FM042000 34011KT 1SM -SN OVC006
     FM050100 35010KT 4SM -SN OVC012
     FM050700 35008KT P6SM SCT020 OVC100
     FM051200 34010KT P6SM BKN025=



000
FTUS41 KILN 041700
TAFLCK
TAF
KLCK 041738Z 0418/0518 31007KT P6SM SCT016 OVC060
      TEMPO 0418/0421 5SM -SN BR OVC016
     FM042100 32011KT 2SM -SN OVC012
     FM050300 34010KT 4SM -SN BR OVC015
     FM050600 33010KT P6SM SCT018 OVC120
     FM051300 33010KT P6SM BKN025=



000
FTUS41 KILN 041700
TAFCVG
TAF
KCVG 041738Z 0418/0524 33011KT 3SM -SNPL BR SCT008 OVC012
      TEMPO 0418/0420 2SM -SN BR OVC008
     FM042000 34012KT 1 1/2SM -SN BR OVC008
     FM050100 35012KT 1SM -SN BR OVC006
     FM050400 36010KT 4SM -SN BR OVC012
     FM050800 36010KT P6SM SCT022 OVC100
     FM051200 34010KT P6SM BKN025=



000
FTUS41 KILN 041700
TAFLUK
TAF
KLUK 041738Z 0418/0518 33003KT 4SM -SNPL BR SCT011 OVC018
      TEMPO 0418/0421 2SM -SN BR OVC011
     FM042100 34010KT 1 1/2SM -SN OVC011
     FM050100 35011KT 1SM -SN OVC008
     FM050400 35009KT 5SM -SN BR OVC015
     FM050800 36008KT P6SM SCT025 OVC100
     FM051200 32010KT P6SM BKN028=



000
FTUS41 KILN 041700
TAFCMH
TAF
KCMH 041738Z 0418/0518 32007KT P6SM SCT016 OVC060
      TEMPO 0418/0421 5SM -SN BR OVC016
     FM042100 32011KT 2SM -SN OVC012
     FM050300 34010KT 4SM -SN BR OVC015
     FM050600 33010KT P6SM SCT018 OVC120
     FM051300 33010KT P6SM BKN025=



000
FTUS41 KILN 041700
TAFDAY
TAF
KDAY 041738Z 0418/0518 33010KT P6SM SCT015 OVC022
      TEMPO 0418/0420 5SM -SN BR OVC015
     FM042000 33014KT 2SM -SN OVC015
     FM050200 34011KT P6SM SCT015 OVC060
     FM051000 34010KT P6SM BKN025=



000
FTUS41 KILN 041700
TAFLCK
TAF
KLCK 041738Z 0418/0518 31007KT P6SM SCT016 OVC060
      TEMPO 0418/0421 5SM -SN BR OVC016
     FM042100 32011KT 2SM -SN OVC012
     FM050300 34010KT 4SM -SN BR OVC015
     FM050600 33010KT P6SM SCT018 OVC120
     FM051300 33010KT P6SM BKN025=



000
FTUS41 KILN 041700
TAFILN
TAF
KILN 041738Z 0418/0518 34007KT 5SM -SN BR SCT009 OVC024
      TEMPO 0418/0420 2SM -RA BR BKN004
     FM042000 34011KT 1SM -SN OVC006
     FM050100 35010KT 4SM -SN OVC012
     FM050700 35008KT P6SM SCT020 OVC100
     FM051200 34010KT P6SM BKN025=



000
FTUS41 KILN 041700
TAFCVG
TAF
KCVG 041738Z 0418/0524 33011KT 3SM -SNPL BR SCT008 OVC012
      TEMPO 0418/0420 2SM -SN BR OVC008
     FM042000 34012KT 1 1/2SM -SN BR OVC008
     FM050100 35012KT 1SM -SN BR OVC006
     FM050400 36010KT 4SM -SN BR OVC012
     FM050800 36010KT P6SM SCT022 OVC100
     FM051200 34010KT P6SM BKN025=



000
FTUS41 KILN 041700
TAFCMH
TAF
KCMH 041738Z 0418/0518 32007KT P6SM SCT016 OVC060
      TEMPO 0418/0421 5SM -SN BR OVC016
     FM042100 32011KT 2SM -SN OVC012
     FM050300 34010KT 4SM -SN BR OVC015
     FM050600 33010KT P6SM SCT018 OVC120
     FM051300 33010KT P6SM BKN025=



000
FTUS41 KILN 041700
TAFDAY
TAF
KDAY 041738Z 0418/0518 33010KT P6SM SCT015 OVC022
      TEMPO 0418/0420 5SM -SN BR OVC015
     FM042000 33014KT 2SM -SN OVC015
     FM050200 34011KT P6SM SCT015 OVC060
     FM051000 34010KT P6SM BKN025=



000
FTUS41 KILN 041700
TAFLUK
TAF
KLUK 041738Z 0418/0518 33003KT 4SM -SNPL BR SCT011 OVC018
      TEMPO 0418/0421 2SM -SN BR OVC011
     FM042100 34010KT 1 1/2SM -SN OVC011
     FM050100 35011KT 1SM -SN OVC008
     FM050400 35009KT 5SM -SN BR OVC015
     FM050800 36008KT P6SM SCT025 OVC100
     FM051200 32010KT P6SM BKN028=



000
FTUS41 KILN 041500 AAA
TAFCVG
TAF AMD
KCVG 041520Z 0415/0518 33008KT P6SM SCT008 OVC015
     FM041600 33011KT 3SM -RAPL BR SCT007 OVC015
     FM041900 34012KT 1SM -SN OVC007
     FM050100 35012KT 3SM -SN OVC010
     FM050600 36010KT P6SM SCT022 OVC100
     FM051200 34007KT P6SM BKN022=



000
FTUS41 KILN 041100 RRA
TAFLUK
TAF
KLUK 041142Z 0412/0512 33003KT 4SM -RA BR SCT009 OVC018
      TEMPO 0412/0414 BKN009
     FM041400 35006KT P6SM BKN025 OVC050
     FM041700 35008KT 3SM -RAPL BR SCT008 OVC020
     FM041900 34010KT 1SM -SN OVC009
     FM050100 35011KT 3SM -SN OVC012
     FM050600 36008KT P6SM SCT025 OVC100=



000
FTUS41 KILN 041100 RRA
TAFCMH
TAF
KCMH 041142Z 0412/0512 30008KT P6SM SCT015 OVC050
      TEMPO 0412/0414 5SM -RASN BR BKN015
     FM041400 31007KT P6SM SCT022 OVC060
      TEMPO 0417/0421 BKN022
     FM042100 32011KT 2SM -SN OVC015
     FM050300 33010KT P6SM SCT018 OVC120=



000
FTUS41 KILN 041100 RRA
TAFLCK
TAF
KLCK 041142Z 0412/0512 27005KT P6SM SCT015 OVC050
      TEMPO 0412/0414 5SM -RASN BR BKN015
     FM041400 30006KT P6SM SCT022 OVC060
      TEMPO 0417/0421 BKN022
     FM042100 32011KT 2SM -SN OVC015
     FM050300 33010KT P6SM SCT018 OVC120=



000
FTUS41 KILN 041100 RRA
TAFCVG
TAF
KCVG 041142Z 0412/0518 32006KT 4SM -RA BR SCT007 OVC015
      TEMPO 0412/0414 BKN007
     FM041400 33008KT P6SM BKN022 OVC050
     FM041700 33011KT 3SM -RAPL BR SCT007 OVC015
     FM041900 34012KT 1SM -SN OVC007
     FM050100 35012KT 3SM -SN OVC010
     FM050600 36010KT P6SM SCT022 OVC100
     FM051200 34007KT P6SM BKN022=



000
FTUS41 KILN 041100 RRA
TAFDAY
TAF
KDAY 041142Z 0412/0512 31008KT P6SM SCT022 OVC080
      TEMPO 0412/0416 BKN022
     FM042000 33014KT 2SM -SN OVC015
     FM050100 34011KT P6SM SCT020 OVC120=



000
FTUS41 KILN 041100 RRA
TAFLCK
TAF
KLCK 041142Z 0412/0512 27005KT P6SM SCT015 OVC050
      TEMPO 0412/0414 5SM -RASN BR BKN015
     FM041400 30006KT P6SM SCT022 OVC060
      TEMPO 0417/0421 BKN022
     FM042100 32011KT 2SM -SN OVC015
     FM050300 33010KT P6SM SCT018 OVC120=



000
FTUS41 KILN 041100 RRA
TAFILN
TAF
KILN 041142Z 0412/0512 29005KT 4SM -RA BR SCT004 OVC025
      TEMPO 0412/0414 2SM -RA BR BKN004
     FM041400 32008KT P6SM BKN025 OVC080
     FM042000 34011KT 1SM -SN OVC006
     FM050100 35010KT 4SM -SN BKN012 OVC100
     FM050500 35008KT P6SM SCT020 OVC100=



000
FTUS41 KILN 041100 RRA
TAFCMH
TAF
KCMH 041142Z 0412/0512 30008KT P6SM SCT015 OVC050
      TEMPO 0412/0414 5SM -RASN BR BKN015
     FM041400 31007KT P6SM SCT022 OVC060
      TEMPO 0417/0421 BKN022
     FM042100 32011KT 2SM -SN OVC015
     FM050300 33010KT P6SM SCT018 OVC120=



000
FTUS41 KILN 041100 RRA
TAFCVG
TAF
KCVG 041142Z 0412/0518 32006KT 4SM -RA BR SCT007 OVC015
      TEMPO 0412/0414 BKN007
     FM041400 33008KT P6SM BKN022 OVC050
     FM041700 33011KT 3SM -RAPL BR SCT007 OVC015
     FM041900 34012KT 1SM -SN OVC007
     FM050100 35012KT 3SM -SN OVC010
     FM050600 36010KT P6SM SCT022 OVC100
     FM051200 34007KT P6SM BKN022=



000
FTUS41 KILN 041100 RRA
TAFLUK
TAF
KLUK 041142Z 0412/0512 33003KT 4SM -RA BR SCT009 OVC018
      TEMPO 0412/0414 BKN009
     FM041400 35006KT P6SM BKN025 OVC050
     FM041700 35008KT 3SM -RAPL BR SCT008 OVC020
     FM041900 34010KT 1SM -SN OVC009
     FM050100 35011KT 3SM -SN OVC012
     FM050600 36008KT P6SM SCT025 OVC100=



000
FTUS41 KILN 041100 RRA
TAFDAY
TAF
KDAY 041142Z 0412/0512 31008KT P6SM SCT022 OVC080
      TEMPO 0412/0416 BKN022
     FM042000 33014KT 2SM -SN OVC015
     FM050100 34011KT P6SM SCT020 OVC120=



000
FTUS41 KILN 041100 RRA
TAFILN
TAF
KILN 041142Z 0412/0512 29005KT 4SM -RA BR SCT004 OVC025
      TEMPO 0412/0414 2SM -RA BR BKN004
     FM041400 32008KT P6SM BKN025 OVC080
     FM042000 34011KT 1SM -SN OVC006
     FM050100 35010KT 4SM -SN BKN012 OVC100
     FM050500 35008KT P6SM SCT020 OVC100=



000
FTUS41 KILN 040900 AAA
TAFDAY
TAF AMD
KDAY 040924Z 0409/0506 30006KT 5SM -RA BR SCT015 OVC080
      TEMPO 0409/0410 BKN015
     FM041030 31008KT P6SM SCT015 OVC080
      TEMPO 0414/0418 BKN015
     FM041900 32014KT 3SM -SN OVC015
     FM050100 34011KT P6SM SCT020 OVC120=



000
FTUS41 KILN 040900 AAA
TAFLCK
TAF AMD
KLCK 040920Z 0409/0506 30005KT 4SM -RA BR SCT012 OVC050
      TEMPO 0409/0412 2SM -RA BR BKN012
     FM041200 31005KT P6SM SCT015 OVC060
      TEMPO 0415/0418 BKN015
     FM042000 32011KT 3SM -SN OVC010
     FM050400 33009KT P6SM SCT018 OVC120=



000
FTUS41 KILN 040900 AAA
TAFCMH
TAF AMD
KCMH 040920Z 0409/0506 30008KT 5SM -RA BR SCT012 OVC050
      TEMPO 0409/0412 BKN012
     FM041200 31007KT P6SM SCT015 OVC060
      TEMPO 0415/0418 BKN015
     FM042000 32011KT 3SM -SN OVC012
     FM050400 33009KT P6SM SCT018 OVC120=



000
FTUS41 KILN 040900 AAA
TAFCMH
TAF AMD
KCMH 040920Z 0409/0506 30008KT 5SM -RA BR SCT012 OVC050
      TEMPO 0409/0412 BKN012
     FM041200 31007KT P6SM SCT015 OVC060
      TEMPO 0415/0418 BKN015
     FM042000 32011KT 3SM -SN OVC012
     FM050400 33009KT P6SM SCT018 OVC120=



000
FTUS41 KILN 040900 AAA
TAFLCK
TAF AMD
KLCK 040920Z 0409/0506 30005KT 4SM -RA BR SCT012 OVC050
      TEMPO 0409/0412 2SM -RA BR BKN012
     FM041200 31005KT P6SM SCT015 OVC060
      TEMPO 0415/0418 BKN015
     FM042000 32011KT 3SM -SN OVC010
     FM050400 33009KT P6SM SCT018 OVC120=



000
FTUS41 KILN 040900 AAA
TAFCVG
TAF AMD
KCVG 040911Z 0409/0512 32006KT 4SM -RA BR OVC015
      TEMPO 0409/0411 BKN007
     FM041200 33008KT 5SM -RA BR BKN015 OVC030
     FM041700 33011KT 3SM -RAPL BR SCT007 OVC012
     FM041900 34012KT 1SM -SN OVC007
     FM050100 35012KT 3SM -SN OVC010
     FM050600 36010KT P6SM BKN015 OVC100=



000
FTUS41 KILN 040900 AAA
TAFLUK
TAF AMD
KLUK 040911Z 0409/0506 33004KT 4SM -RA BR BKN022 OVC050
      TEMPO 0409/0412 SCT022 OVC050
     FM041200 34006KT 5SM -RA BR BKN020 OVC035
     FM041700 33008KT 3SM -RAPL BR SCT008 OVC018
     FM041900 33010KT 1SM -SN OVC008
     FM050100 35011KT 3SM -SN OVC012=



000
FTUS41 KILN 040900 AAA
TAFCVG
TAF AMD
KCVG 040911Z 0409/0512 32006KT 4SM -RA BR OVC015
      TEMPO 0409/0411 BKN007
     FM041200 33008KT 5SM -RA BR BKN015 OVC030
     FM041700 33011KT 3SM -RAPL BR SCT007 OVC012
     FM041900 34012KT 1SM -SN OVC007
     FM050100 35012KT 3SM -SN OVC010
     FM050600 36010KT P6SM BKN015 OVC100=



000
FTUS41 KILN 040900 AAA
TAFLUK
TAF AMD
KLUK 040911Z 0409/0506 33004KT 4SM -RA BR BKN022 OVC050
      TEMPO 0409/0412 SCT022 OVC050
     FM041200 34006KT 5SM -RA BR BKN020 OVC035
     FM041700 33008KT 3SM -RAPL BR SCT008 OVC018
     FM041900 33010KT 1SM -SN OVC008
     FM050100 35011KT 3SM -SN OVC012=



000
FTUS41 KILN 040500 RRA
TAFCMH
TAF
KCMH 040548Z 0406/0506 30008KT 5SM -RA BR SCT009 OVC015
      TEMPO 0406/0410 BKN009
     FM041000 31007KT 4SM -RA BR BKN008 OVC015
     FM041800 32010KT P6SM BKN015 OVC030
     FM042100 32011KT 3SM -SN OVC012
     FM050400 33009KT P6SM SCT018 OVC120=



000
FTUS41 KILN 040500 RRA
TAFILN
TAF
KILN 040548Z 0406/0506 30008KT 5SM -RA BR SCT006 OVC040
      TEMPO 0406/0409 BKN006
     FM040900 31008KT 4SM -RA BR OVC007
     FM041300 34008KT 4SM -RA BR OVC007
     FM041700 33010KT 3SM -RAPL OVC007
     FM041900 33011KT 2SM -SN OVC005
     FM050300 35010KT 4SM -SN BR BKN010 OVC100=



000
FTUS41 KILN 040500 RRA
TAFLUK
TAF
KLUK 040548Z 0406/0506 31005KT 5SM -RA BR SCT010 OVC040
      TEMPO 0406/0409 BKN010
     FM040900 33004KT 4SM -RA BR OVC015
     FM041100 34006KT 2SM -RA BR OVC008
     FM041700 33008KT 3SM -RAPL BR OVC008
     FM041900 33010KT 1SM -SN OVC006
     FM050100 35011KT 3SM -SN OVC012=



000
FTUS41 KILN 040500 RRA
TAFDAY
TAF
KDAY 040548Z 0406/0506 28009KT 5SM -RA BR OVC008
      TEMPO 0406/0409 SCT008 OVC015
     FM041100 32008KT P6SM SCT015 OVC022
     FM042000 32014KT 3SM -SN OVC015
     FM050100 34011KT P6SM SCT020 OVC120=



000
FTUS41 KILN 040500 RRA
TAFLCK
TAF
KLCK 040548Z 0406/0506 30005KT 3SM -RA BR SCT008 OVC015
      TEMPO 0406/0410 BKN008
     FM041000 31004KT 4SM -RA BR BKN007 OVC015
     FM041800 32007KT P6SM BKN012 OVC030
     FM042100 32011KT 3SM -SN OVC010
     FM050400 33009KT P6SM SCT018 OVC120=



000
FTUS41 KILN 040500 RRA
TAFCVG
TAF
KCVG 040548Z 0406/0512 31008KT 5SM -RA BR SCT006 OVC040
      TEMPO 0406/0409 BKN006
     FM040900 32008KT 4SM -RA BR OVC010
     FM041100 33008KT 2SM -RA BR OVC007
     FM041700 33011KT 3SM -RAPL BR OVC007
     FM041900 33012KT 1SM -SN OVC005
     FM050100 35012KT 3SM -SN OVC010
     FM050600 36010KT P6SM BKN015 OVC100=



000
FTUS41 KILN 040500 RRA
TAFLCK
TAF
KLCK 040548Z 0406/0506 30005KT 3SM -RA BR SCT008 OVC015
      TEMPO 0406/0410 BKN008
     FM041000 31004KT 4SM -RA BR BKN007 OVC015
     FM041800 32007KT P6SM BKN012 OVC030
     FM042100 32011KT 3SM -SN OVC010
     FM050400 33009KT P6SM SCT018 OVC120=



000
FTUS41 KILN 040500 RRA
TAFCMH
TAF
KCMH 040548Z 0406/0506 30008KT 5SM -RA BR SCT009 OVC015
      TEMPO 0406/0410 BKN009
     FM041000 31007KT 4SM -RA BR BKN008 OVC015
     FM041800 32010KT P6SM BKN015 OVC030
     FM042100 32011KT 3SM -SN OVC012
     FM050400 33009KT P6SM SCT018 OVC120=



000
FTUS41 KILN 040500 RRA
TAFILN
TAF
KILN 040548Z 0406/0506 30008KT 5SM -RA BR SCT006 OVC040
      TEMPO 0406/0409 BKN006
     FM040900 31008KT 4SM -RA BR OVC007
     FM041300 34008KT 4SM -RA BR OVC007
     FM041700 33010KT 3SM -RAPL OVC007
     FM041900 33011KT 2SM -SN OVC005
     FM050300 35010KT 4SM -SN BR BKN010 OVC100=



000
FTUS41 KILN 040500 RRA
TAFLUK
TAF
KLUK 040548Z 0406/0506 31005KT 5SM -RA BR SCT010 OVC040
      TEMPO 0406/0409 BKN010
     FM040900 33004KT 4SM -RA BR OVC015
     FM041100 34006KT 2SM -RA BR OVC008
     FM041700 33008KT 3SM -RAPL BR OVC008
     FM041900 33010KT 1SM -SN OVC006
     FM050100 35011KT 3SM -SN OVC012=



000
FTUS41 KILN 040500 RRA
TAFDAY
TAF
KDAY 040548Z 0406/0506 28009KT 5SM -RA BR OVC008
      TEMPO 0406/0409 SCT008 OVC015
     FM041100 32008KT P6SM SCT015 OVC022
     FM042000 32014KT 3SM -SN OVC015
     FM050100 34011KT P6SM SCT020 OVC120=



000
FTUS41 KILN 040500 RRA
TAFCVG
TAF
KCVG 040548Z 0406/0512 31008KT 5SM -RA BR SCT006 OVC040
      TEMPO 0406/0409 BKN006
     FM040900 32008KT 4SM -RA BR OVC010
     FM041100 33008KT 2SM -RA BR OVC007
     FM041700 33011KT 3SM -RAPL BR OVC007
     FM041900 33012KT 1SM -SN OVC005
     FM050100 35012KT 3SM -SN OVC010
     FM050600 36010KT P6SM BKN015 OVC100=



000
FTUS41 KILN 040300 AAA
TAFLCK
TAF AMD
KLCK 040333Z 0404/0424 28007KT P6SM -RA SCT008 OVC018
     FM040800 28010KT 5SM -RA BR OVC008
      TEMPO 0411/0413 2SM -SN BR OVC008
     FM041300 33010KT 4SM BR OVC012
     FM042200 33012KT 1 1/2SM -SN BR OVC007=



000
FTUS41 KILN 040300 AAA
TAFLCK
TAF AMD
KLCK 040333Z 0404/0424 28007KT P6SM -RA SCT008 OVC018
     FM040800 28010KT 5SM -RA BR OVC008
      TEMPO 0411/0413 2SM -SN BR OVC008
     FM041300 33010KT 4SM BR OVC012
     FM042200 33012KT 1 1/2SM -SN BR OVC007=



000
FTUS41 KILN 040300 AAC
TAFCMH
TAF AMD
KCMH 040333Z 0404/0424 28010KT P6SM -RA OVC015
     FM040800 28010KT 5SM -RA BR OVC015
      TEMPO 0411/0413 2SM -SN BR OVC008
     FM041300 33010KT 4SM BR OVC012
     FM042200 33012KT 1 1/2SM -SN BR OVC007=



000
FTUS41 KILN 040300 AAB
TAFCMH
TAF AMD
KCMH 040331Z 0404/0424 28010KT P6SM -RA OVC015
     FM040800 28010KT P6SM -RA OVC015
      TEMPO 0411/0413 2SM -SN BR OVC008
     FM041300 33010KT 4SM BR OVC012
     FM042200 33012KT 1 1/2SM -SN BR OVC007=



000
FTUS41 KILN 040300 AAA
TAFILN
TAF AMD
KILN 040322Z 0403/0424 27009KT P6SM -RA OVC008
      TEMPO 0403/0406 OVC003
     FM040800 32008KT 5SM -RA BR OVC006
     FM041500 33007KT 3SM BR OVC006
     FM042000 33012KT 1 1/2SM -SN BR OVC004=



000
FTUS41 KILN 040300 AAA
TAFILN
TAF AMD
KILN 040322Z 0403/0424 27009KT P6SM -RA OVC008
      TEMPO 0403/0406 OVC003
     FM040800 32008KT 5SM -RA BR OVC006
     FM041500 33007KT 3SM BR OVC006
     FM042000 33012KT 1 1/2SM -SN BR OVC004=



000
FTUS41 KILN 040300 AAB
TAFDAY
TAF AMD
KDAY 040320Z 0403/0424 27011KT P6SM -RA BKN008 OVC022
      TEMPO 0403/0406 OVC012
     FM040700 29010KT 5SM -RA BR OVC008
      TEMPO 0411/0413 2SM -SN BR OVC006
     FM041300 33010KT 4SM BR OVC012
     FM042100 33012KT 1 1/2SM -SN BR OVC007=



000
FTUS41 KILN 040300 AAB
TAFDAY
TAF AMD
KDAY 040320Z 0403/0424 27011KT P6SM -RA BKN008 OVC022
      TEMPO 0403/0406 OVC012
     FM040700 29010KT 5SM -RA BR OVC008
      TEMPO 0411/0413 2SM -SN BR OVC006
     FM041300 33010KT 4SM BR OVC012
     FM042100 33012KT 1 1/2SM -SN BR OVC007=



000
FTUS41 KILN 040300 AAB
TAFLUK
TAF AMD
KLUK 040316Z 0403/0424 25005KT P6SM -RA OVC011
     FM040900 32008KT 5SM -RA BR OVC010
     FM041500 33007KT 3SM BR OVC008
     FM041800 33012KT 1 1/2SM -SN BR OVC004=



000
FTUS41 KILN 040300 AAB
TAFLUK
TAF AMD
KLUK 040316Z 0403/0424 25005KT P6SM -RA OVC011
     FM040900 32008KT 5SM -RA BR OVC010
     FM041500 33007KT 3SM BR OVC008
     FM041800 33012KT 1 1/2SM -SN BR OVC004=



000
FTUS41 KILN 040300 AAB
TAFCVG
TAF AMD
KCVG 040315Z 0403/0506 26006KT P6SM -RA OVC008
     FM040800 32008KT 4SM -RA BR OVC008
     FM041500 33007KT 2SM BR OVC006
     FM041800 33012KT 1 1/2SM -SN BR OVC004
     FM050000 36012KT 1 1/2SM -SN BR OVC004=



000
FTUS41 KILN 040100 AAA
TAFCMH
TAF AMD
KCMH 040126Z 0401/0424 23006KT 5SM -RA BR OVC006
      TEMPO 0411/0413 2SM -SN BR OVC008
     FM041300 33010KT 4SM BR OVC012
     FM042200 33012KT 1 1/2SM -SN BR OVC007=



000
FTUS41 KILN 040100 AAA
TAFCMH
TAF AMD
KCMH 040126Z 0401/0424 23006KT 5SM -RA BR OVC006
      TEMPO 0411/0413 2SM -SN BR OVC008
     FM041300 33010KT 4SM BR OVC012
     FM042200 33012KT 1 1/2SM -SN BR OVC007=



000
FTUS41 KILN 040100 AAA
TAFILN
TAF AMD
KILN 040125Z 0401/0424 25013KT 6SM -RA BR OVC009
     FM040200 28012KT P6SM -RA OVC015
     FM040800 32008KT 5SM -RA BR OVC006
     FM041500 33007KT 3SM BR OVC006
     FM042000 33012KT 1 1/2SM -SN BR OVC004=



000
FTUS41 KILN 040100 AAA
TAFILN
TAF AMD
KILN 040125Z 0401/0424 25013KT 6SM -RA BR OVC009
     FM040200 28012KT P6SM -RA OVC015
     FM040800 32008KT 5SM -RA BR OVC006
     FM041500 33007KT 3SM BR OVC006
     FM042000 33012KT 1 1/2SM -SN BR OVC004=



000
FTUS41 KILN 040100 AAA
TAFDAY
TAF AMD
KDAY 040123Z 0401/0424 26011G19KT P6SM -RA BKN008 OVC022
     FM040600 29010KT 5SM -RA BR OVC008
      TEMPO 0411/0413 2SM -SN BR OVC006
     FM041300 33010KT 4SM BR OVC012
     FM042100 33012KT 1 1/2SM -SN BR OVC007=



000
FTUS41 KILN 040100 AAA
TAFDAY
TAF AMD
KDAY 040123Z 0401/0424 26011G19KT P6SM -RA BKN008 OVC022
     FM040600 29010KT 5SM -RA BR OVC008
      TEMPO 0411/0413 2SM -SN BR OVC006
     FM041300 33010KT 4SM BR OVC012
     FM042100 33012KT 1 1/2SM -SN BR OVC007=



000
FTUS41 KILN 040100 AAA
TAFCVG
TAF AMD
KCVG 040119Z 0401/0506 26014G20KT 6SM -RA BR BKN008 OVC012
     FM040400 32008KT 4SM -RA BR OVC008
     FM041500 33007KT 2SM BR OVC006
     FM041800 33012KT 1 1/2SM -SN BR OVC004
     FM050000 36012KT 1 1/2SM -SN BR OVC004=



000
FTUS41 KILN 040100 AAA
TAFLUK
TAF AMD
KLUK 040119Z 0401/0424 26012G17KT P6SM -RA BKN016 OVC025
     FM040600 32008KT 5SM -RA BR OVC010
     FM041500 33007KT 3SM BR OVC008
     FM041800 33012KT 1 1/2SM -SN BR OVC004=



000
FTUS41 KILN 032300
TAFLUK
TAF
KLUK 032329Z 0400/0424 22009KT P6SM -RA OVC025
     FM040400 32008KT 2SM -RA BR OVC008
     FM041500 33007KT 3SM BR OVC008
     FM041800 33012KT 1 1/2SM -SN BR OVC004=



000
FTUS41 KILN 032300
TAFCMH
TAF
KCMH 032329Z 0400/0424 20004KT 1/4SM -RA FG VV002
     FM040200 26008KT 4SM -RA BR OVC005
      TEMPO 0411/0413 2SM -SN BR OVC008
     FM041300 33010KT 4SM BR OVC012
     FM042200 33012KT 1 1/2SM -SN BR OVC007=



000
FTUS41 KILN 032300
TAFLCK
TAF
KLCK 032329Z 0400/0424 20007KT 1/4SM -RA OVC005
     FM040200 26008KT 4SM -RA BR OVC005
      TEMPO 0411/0413 2SM -SN BR OVC008
     FM041300 33010KT 4SM BR OVC012
     FM042200 33012KT 1 1/2SM -SN BR OVC007=



000
FTUS41 KILN 032300
TAFCVG
TAF
KCVG 032329Z 0400/0506 25009KT 4SM -RA BR OVC025
     FM040400 32008KT 1SM -RA BR OVC006
     FM041500 33007KT 2SM BR OVC006
     FM041800 33012KT 1 1/2SM -SN BR OVC004
     FM050000 36012KT 1 1/2SM -SN BR OVC004=



000
FTUS41 KILN 032300
TAFILN
TAF
KILN 032329Z 0400/0424 22008KT 1/4SM -RA FG OVC002
     FM040200 28012KT 4SM -RA BR OVC025
     FM040400 32008KT 2SM -RA BR OVC006
     FM041500 33007KT 3SM BR OVC006
     FM042000 33012KT 1 1/2SM -SN BR OVC004=



000
FTUS41 KILN 032300
TAFDAY
TAF
KDAY 032329Z 0400/0424 24012KT 3/4SM -RA BR OVC003
     FM040300 27010KT 2SM -RA BR OVC004
      TEMPO 0411/0413 2SM -SN BR OVC008
     FM041300 33010KT 4SM BR OVC012
     FM042100 33012KT 1 1/2SM -SN BR OVC007=



000
FTUS41 KILN 032200 AAA
TAFCMH
TAF AMD
KCMH 032207Z 0322/0418 18011KT 1SM -RA BR OVC003
      TEMPO 0322/0324 1/2SM -RA FG
     FM040000 22010KT 1SM -SHRA BR OVC005
     FM040500 27008KT 4SM -RA BR OVC007
     FM041200 33008KT 2SM -SN BR OVC006=



000
FTUS41 KILN 032200 AAA
TAFCMH
TAF AMD
KCMH 032207Z 0322/0418 18011KT 1SM -RA BR OVC003
      TEMPO 0322/0324 1/2SM -RA FG
     FM040000 22010KT 1SM -SHRA BR OVC005
     FM040500 27008KT 4SM -RA BR OVC007
     FM041200 33008KT 2SM -SN BR OVC006=



000
FTUS41 KILN 032200 AAB
TAFLCK
TAF AMD
KLCK 032205Z 0322/0418 20007KT 1/4SM -RA OVC003
     FM040000 22008KT 1SM -RA BR OVC005
     FM040500 27008KT 4SM -RA BR OVC007
     FM041200 33008KT 2SM -SN BR OVC006=



000
FTUS41 KILN 032200 AAB
TAFLCK
TAF AMD
KLCK 032205Z 0322/0418 20007KT 1/4SM -RA OVC003
     FM040000 22008KT 1SM -RA BR OVC005
     FM040500 27008KT 4SM -RA BR OVC007
     FM041200 33008KT 2SM -SN BR OVC006=



000
FTUS41 KILN 032200 AAB
TAFILN
TAF AMD
KILN 032203Z 0322/0418 23010KT 1/4SM -RA FG OVC003
     FM040000 23012KT 1SM -RA BR OVC003
     FM040300 28012KT 2SM -RA BR OVC004
     FM041300 32012KT 1 1/2SM -SN BR OVC006=



000
FTUS41 KILN 032100 AAA
TAFLCK
TAF AMD
KLCK 032116Z 0321/0418 18011KT 1SM -RA OVC003
     FM032300 22012G20KT 3SM -SHRA BR OVC008
     FM040500 27008KT 4SM -RA BR OVC007
     FM041200 33008KT 2SM -SN BR OVC006=



000
FTUS41 KILN 032100 AAA
TAFDAY
TAF AMD
KDAY 032112Z 0321/0418 20013KT 2SM -RA BR OVC003
     FM040300 27012KT 5SM -RA BR OVC004
     FM041100 32012KT 2SM -SN BR OVC008
     FM041600 33010KT 3SM -SN BR OVC012=



000
FTUS41 KILN 032100 AAA
TAFDAY
TAF AMD
KDAY 032112Z 0321/0418 20013KT 2SM -RA BR OVC003
     FM040300 27012KT 5SM -RA BR OVC004
     FM041100 32012KT 2SM -SN BR OVC008
     FM041600 33010KT 3SM -SN BR OVC012=



000
FTUS41 KILN 032100 AAB
TAFCVG
TAF AMD
KCVG 032101Z 0321/0424 20013G19KT 3/4SM RA BR OVC004
     FM032200 25011G18KT 1SM -RA BR OVC004
     FM040600 30008KT 2SM -RA BR OVC006
     FM041500 33012KT 1 1/2SM -SN BR OVC004=



000
FTUS41 KILN 032000 AAA
TAFILN
TAF AMD
KILN 032024Z 0320/0418 19013G22KT 3SM -RA BR OVC009
      TEMPO 0320/0322 1/2SM FG OVC002
     FM040300 28012KT 2SM -RA BR OVC004
     FM041300 32012KT 1 1/2SM -SN BR OVC006=



000
FTUS41 KILN 031900 AAA
TAFCVG
TAF AMD
KCVG 031945Z 0320/0424 20010G18KT 4SM -RA BR OVC008
      TEMPO 0320/0322 1/2SM -RA FG OVC002
     FM032200 25011G18KT 2SM -RA BR OVC004
     FM040600 30008KT 2SM -RA BR OVC006
     FM041500 33012KT 1 1/2SM -SN BR OVC004=



000
FTUS41 KILN 031900 AAA
TAFILN
TAF AMD
KILN 031944Z 0320/0418 19013G22KT 3SM -RA BR OVC009
      TEMPO 0320/0322 1/4SM FG OVC002
     FM040300 28012KT 2SM -RA BR OVC004
     FM041300 32012KT 1 1/2SM -SN BR OVC006=



000
FTUS41 KILN 031900 AAA
TAFILN
TAF AMD
KILN 031944Z 0320/0418 19013G22KT 3SM -RA BR OVC009
      TEMPO 0320/0322 1/4SM FG OVC002
     FM040300 28012KT 2SM -RA BR OVC004
     FM041300 32012KT 1 1/2SM -SN BR OVC006=



000
FTUS41 KILN 031700 RRA
TAFDAY
TAF
KDAY 031744Z 0318/0418 19014G22KT 3SM -RA BR BKN008 OVC012
      TEMPO 0318/0322 1 1/2SM -RA BR OVC006
     FM040300 27012KT 5SM -RA BR OVC004
     FM041100 32012KT 2SM -SN BR OVC008
     FM041600 33010KT 3SM -SN BR OVC012=



000
FTUS41 KILN 031700 RRA
TAFLUK
TAF
KLUK 031744Z 0318/0418 20008KT 4SM -RA BR OVC013
      TEMPO 0318/0322 1 1/2SM -RA BR OVC007
     FM032200 25010KT 2SM -RA BR OVC007
     FM040600 30008KT 2SM -RA BR OVC009
     FM041500 33011KT 1 1/2SM -SN BR OVC005=



000
FTUS41 KILN 031700 RRA
TAFILN
TAF
KILN 031744Z 0318/0418 19013G22KT 3SM -RA BR OVC009
      TEMPO 0318/0322 1 1/2SM -RA BR OVC006
     FM040300 28012KT 2SM -RA BR OVC004
     FM041300 32012KT 1 1/2SM -SN BR OVC006=



000
FTUS41 KILN 031700 RRA
TAFLCK
TAF
KLCK 031744Z 0318/0418 18011KT 5SM -RA BR SCT006 OVC012
      TEMPO 0319/0323 2SM -RA BR OVC006
     FM032300 22012G20KT 3SM -SHRA BR OVC008
     FM040500 27008KT 4SM -RA BR OVC007
     FM041200 33008KT 2SM -SN BR OVC006=



000
FTUS41 KILN 031700 RRA
TAFCMH
TAF
KCMH 031744Z 0318/0418 18011KT 5SM -RA BR SCT006 OVC012
      TEMPO 0319/0323 2SM -RA BR OVC006
     FM032300 22012G20KT 3SM -SHRA BR OVC008
     FM040500 27008KT 4SM -RA BR OVC007
     FM041200 33008KT 2SM -SN BR OVC006=



000
FTUS41 KILN 031700 RRA
TAFCVG
TAF
KCVG 031744Z 0318/0424 20010G18KT 4SM -RA BR OVC008
      TEMPO 0318/0322 1 1/2SM -RA BR OVC004
     FM032200 25011G18KT 2SM -RA BR OVC004
     FM040600 30008KT 2SM -RA BR OVC006
     FM041500 33012KT 1 1/2SM -SN BR OVC004=



000
FTUS41 KILN 031700 RRA
TAFLUK
TAF
KLUK 031744Z 0318/0418 20008KT 4SM -RA BR OVC013
      TEMPO 0318/0322 1 1/2SM -RA BR OVC007
     FM032200 25010KT 2SM -RA BR OVC007
     FM040600 30008KT 2SM -RA BR OVC009
     FM041500 33011KT 1 1/2SM -SN BR OVC005=



000
FTUS41 KILN 031700 RRA
TAFILN
TAF
KILN 031744Z 0318/0418 19013G22KT 3SM -RA BR OVC009
      TEMPO 0318/0322 1 1/2SM -RA BR OVC006
     FM040300 28012KT 2SM -RA BR OVC004
     FM041300 32012KT 1 1/2SM -SN BR OVC006=



000
FTUS41 KILN 031700 RRA
TAFCVG
TAF
KCVG 031744Z 0318/0424 20010G18KT 4SM -RA BR OVC008
      TEMPO 0318/0322 1 1/2SM -RA BR OVC004
     FM032200 25011G18KT 2SM -RA BR OVC004
     FM040600 30008KT 2SM -RA BR OVC006
     FM041500 33012KT 1 1/2SM -SN BR OVC004=



000
FTUS41 KILN 031700 RRA
TAFCMH
TAF
KCMH 031744Z 0318/0418 18011KT 5SM -RA BR SCT006 OVC012
      TEMPO 0319/0323 2SM -RA BR OVC006
     FM032300 22012G20KT 3SM -SHRA BR OVC008
     FM040500 27008KT 4SM -RA BR OVC007
     FM041200 33008KT 2SM -SN BR OVC006=



000
FTUS41 KILN 031700 RRA
TAFLCK
TAF
KLCK 031744Z 0318/0418 18011KT 5SM -RA BR SCT006 OVC012
      TEMPO 0319/0323 2SM -RA BR OVC006
     FM032300 22012G20KT 3SM -SHRA BR OVC008
     FM040500 27008KT 4SM -RA BR OVC007
     FM041200 33008KT 2SM -SN BR OVC006=



000
FTUS41 KILN 031700 RRA
TAFDAY
TAF
KDAY 031744Z 0318/0418 19014G22KT 3SM -RA BR BKN008 OVC012
      TEMPO 0318/0322 1 1/2SM -RA BR OVC006
     FM040300 27012KT 5SM -RA BR OVC004
     FM041100 32012KT 2SM -SN BR OVC008
     FM041600 33010KT 3SM -SN BR OVC012=



000
FTUS41 KILN 031500 AAA
TAFLCK
TAF AMD
KLCK 031518Z 0315/0412 13007KT P6SM OVC035
      TEMPO 0316/0317 5SM -FZRA BR OVC022
     FM031700 14008KT 2SM -FZRA BR BKN008 OVC012
     FM031900 18011KT 5SM -SHRA BR BKN018 OVC022
     FM032300 22012G20KT 4SM -SHRA BR BKN008 OVC025
     FM040500 27010KT 4SM -SHRA BR OVC007=



000
FTUS41 KILN 031500 AAB
TAFCMH
TAF AMD
KCMH 031517Z 0315/0412 13007KT P6SM OVC035
      TEMPO 0316/0317 5SM -FZRA BR OVC022
     FM031700 14008KT 2SM -FZRA BR BKN008 OVC012
     FM031900 18011KT 5SM -SHRA BR BKN018 OVC022
     FM032300 22012G20KT 4SM -SHRA BR BKN008 OVC025
     FM040500 27010KT 4SM -SHRA BR OVC007=



000
FTUS41 KILN 031500 AAA
TAFDAY
TAF AMD
KDAY 031516Z 0315/0412 14010KT 6SM -FZRA OVC025
      TEMPO 0315/0316 3SM FZRA BR OVC011
     FM031600 15012G20KT 5SM -FZRA BR BKN008 OVC011
     FM031800 24014G22KT 4SM -SHRA BR BKN009 OVC015
     FM040300 27012KT 5SM BR OVC012=



000
FTUS41 KILN 031500 AAA
TAFCMH
TAF AMD
KCMH 031513Z 0315/0412 13007KT 6SM -FZRA OVC035
      TEMPO 0315/0316 3SM -FZRA BR OVC022
     FM031600 14008KT 2SM -FZRA BR BKN008 OVC012
     FM031900 18011KT 5SM -SHRA BR BKN018 OVC035
     FM032300 22012G20KT 4SM -SHRA BR BKN008 OVC025
     FM040500 27010KT 4SM -SHRA BR OVC007=



000
FTUS41 KILN 031500 AAA
TAFCMH
TAF AMD
KCMH 031513Z 0315/0412 13007KT 6SM -FZRA OVC035
      TEMPO 0315/0316 3SM -FZRA BR OVC022
     FM031600 14008KT 2SM -FZRA BR BKN008 OVC012
     FM031900 18011KT 5SM -SHRA BR BKN018 OVC035
     FM032300 22012G20KT 4SM -SHRA BR BKN008 OVC025
     FM040500 27010KT 4SM -SHRA BR OVC007=



000
FTUS41 KILN 031500 AAA
TAFILN
TAF AMD
KILN 031510Z 0315/0412 14006KT P6SM OVC025
      TEMPO 0315/0316 5SM -FZRA BR OVC015
     FM031600 19011KT 5SM -SHRA BR BKN012 OVC025
     FM032200 22012G20KT 3SM -SHRA BR BKN008 OVC015
     FM040200 27010KT 3SM -RA BR OVC007=



000
FTUS41 KILN 031500 AAA
TAFILN
TAF AMD
KILN 031510Z 0315/0412 14006KT P6SM OVC025
      TEMPO 0315/0316 5SM -FZRA BR OVC015
     FM031600 19011KT 5SM -SHRA BR BKN012 OVC025
     FM032200 22012G20KT 3SM -SHRA BR BKN008 OVC015
     FM040200 27010KT 3SM -RA BR OVC007=



000
FTUS41 KILN 031500 AAA
TAFLUK
TAF AMD
KLUK 031508Z 0315/0412 12007KT P6SM OVC018
      TEMPO 0315/0318 4SM -RA BR OVC011
     FM031800 20010KT 5SM -RA BR BKN010 OVC025
     FM032300 25011KT 3SM -RA BR BKN009 OVC015
     FM040600 30008KT 5SM BR VCSH OVC009=



000
FTUS41 KILN 031500 AAA
TAFLUK
TAF AMD
KLUK 031508Z 0315/0412 12007KT P6SM OVC018
      TEMPO 0315/0318 4SM -RA BR OVC011
     FM031800 20010KT 5SM -RA BR BKN010 OVC025
     FM032300 25011KT 3SM -RA BR BKN009 OVC015
     FM040600 30008KT 5SM BR VCSH OVC009=



000
FTUS41 KILN 031500 AAA
TAFCVG
TAF AMD
KCVG 031506Z 0315/0418 15008KT P6SM OVC015
      TEMPO 0315/0318 3SM -RA BR OVC008
     FM031800 20010KT 5SM -RA BR OVC008
     FM032300 25011KT 3SM -SHRA BR BKN007 OVC015
     FM040600 30008KT 5SM BR VCSH OVC007=



000
FTUS41 KILN 031100
TAFLCK
TAF
KLCK 031129Z 0312/0412 11004KT 6SM -FZRA OVC050
     FM031500 14008KT 6SM -FZRA OVC022
     FM031900 18010KT 5SM -SHRA BR BKN018 OVC035
     FM032300 21011KT 4SM -SHRA BR BKN008 OVC025
     FM040500 27010KT 4SM -SHRA BR OVC007=



000
FTUS41 KILN 031100
TAFILN
TAF
KILN 031129Z 0312/0412 12006KT 6SM -FZRA OVC035
     FM031400 16010KT 5SM -FZRA OVC025
     FM031800 19011KT 5SM -SHRA BR BKN015 OVC035
     FM032200 22012G20KT 3SM -SHRA BR BKN008 OVC015
     FM040200 27010KT 3SM -RA BR OVC007=



000
FTUS41 KILN 031100
TAFDAY
TAF
KDAY 031129Z 0312/0412 13006KT 6SM -FZRA OVC035
     FM031500 15011KT 5SM -FZRA OVC025
     FM031800 18012G20KT 5SM -SHRA BR SCT009 OVC025
     FM032200 24014G22KT 4SM -SHRA BR BKN009 OVC015
     FM040300 27012KT 5SM BR OVC012=



000
FTUS41 KILN 031100
TAFLUK
TAF
KLUK 031129Z 0312/0412 12007KT 6SM -FZRA OVC035
     FM031500 15008KT 5SM -FZRA BR OVC025
     FM031800 20010KT 5SM -SHRA BR SCT009 OVC025
     FM032300 25011KT 3SM -SHRA BR BKN009 OVC015
     FM040600 30008KT 5SM BR VCSH OVC009=



000
FTUS41 KILN 031100
TAFCVG
TAF
KCVG 031129Z 0312/0418 12007KT 6SM -FZRA OVC035
     FM031500 15008KT 5SM -FZRA BR OVC025
     FM031800 20010KT 5SM -SHRA BR SCT007 OVC025
     FM032300 25011KT 3SM -SHRA BR BKN007 OVC015
     FM040600 30008KT 5SM BR VCSH OVC007=



000
FTUS41 KILN 031100
TAFCMH
TAF
KCMH 031129Z 0312/0412 12004KT 6SM -FZRA OVC050
     FM031500 14008KT 6SM -FZRA OVC025
     FM031900 18011KT 5SM -SHRA BR BKN018 OVC035
     FM032300 22012G20KT 4SM -SHRA BR BKN008 OVC025
     FM040500 27010KT 4SM -SHRA BR OVC007=



000
FTUS41 KILN 031100
TAFILN
TAF
KILN 031129Z 0312/0412 12006KT 6SM -FZRA OVC035
     FM031400 16010KT 5SM -FZRA OVC025
     FM031800 19011KT 5SM -SHRA BR BKN015 OVC035
     FM032200 22012G20KT 3SM -SHRA BR BKN008 OVC015
     FM040200 27010KT 3SM -RA BR OVC007=



000
FTUS41 KILN 031100
TAFCMH
TAF
KCMH 031129Z 0312/0412 12004KT 6SM -FZRA OVC050
     FM031500 14008KT 6SM -FZRA OVC025
     FM031900 18011KT 5SM -SHRA BR BKN018 OVC035
     FM032300 22012G20KT 4SM -SHRA BR BKN008 OVC025
     FM040500 27010KT 4SM -SHRA BR OVC007=



000
FTUS41 KILN 031100
TAFCVG
TAF
KCVG 031129Z 0312/0418 12007KT 6SM -FZRA OVC035
     FM031500 15008KT 5SM -FZRA BR OVC025
     FM031800 20010KT 5SM -SHRA BR SCT007 OVC025
     FM032300 25011KT 3SM -SHRA BR BKN007 OVC015
     FM040600 30008KT 5SM BR VCSH OVC007=



000
FTUS41 KILN 031100
TAFLCK
TAF
KLCK 031129Z 0312/0412 11004KT 6SM -FZRA OVC050
     FM031500 14008KT 6SM -FZRA OVC022
     FM031900 18010KT 5SM -SHRA BR BKN018 OVC035
     FM032300 21011KT 4SM -SHRA BR BKN008 OVC025
     FM040500 27010KT 4SM -SHRA BR OVC007=



000
FTUS41 KILN 031100
TAFDAY
TAF
KDAY 031129Z 0312/0412 13006KT 6SM -FZRA OVC035
     FM031500 15011KT 5SM -FZRA OVC025
     FM031800 18012G20KT 5SM -SHRA BR SCT009 OVC025
     FM032200 24014G22KT 4SM -SHRA BR BKN009 OVC015
     FM040300 27012KT 5SM BR OVC012=



000
FTUS41 KILN 031100
TAFLUK
TAF
KLUK 031129Z 0312/0412 12007KT 6SM -FZRA OVC035
     FM031500 15008KT 5SM -FZRA BR OVC025
     FM031800 20010KT 5SM -SHRA BR SCT009 OVC025
     FM032300 25011KT 3SM -SHRA BR BKN009 OVC015
     FM040600 30008KT 5SM BR VCSH OVC009=



    US Dept of Commerce
    National Oceanic and Atmospheric Administration
    National Weather Service
    1325 East West Highway
    Silver Spring, MD 20910
    Page Author: NWS Internet Services Team
Disclaimer
Information Quality
Credits
Glossary
Privacy Policy
Freedom of Information Act (FOIA)
About Us
Career Opportunities